Time;durP1;ratioP1;P1;durP2;ratioP2;P2;SDS_P1;SDS_P2;PMS_P1;PMS_P2;Temp;Humidity;BMP_temperature;BMP_pressure;BME280_temperature;BME280_humidity;BME280_pressure;Samples;Min_cycle;Max_cycle;Signal;HPM_P1;HPM_P2
2022/06/15 00:01:17;;;;;;;7.65;3.00;;;;;;;13.07;100.00;101861.47;5214759;28;20032;-69
2022/06/15 00:03:50;;;;;;;11.57;3.20;;;;;;;13.06;100.00;101862.47;5214974;28;20035;-70
2022/06/15 00:06:23;;;;;;;5.15;3.38;;;;;;;13.02;100.00;101855.69;5213067;28;20021;-69
2022/06/15 00:08:56;;;;;;;10.05;2.90;;;;;;;12.96;100.00;101859.88;5217061;28;20029;-69
2022/06/15 00:11:30;;;;;;;8.75;3.17;;;;;;;12.90;100.00;101850.56;5214265;28;20017;-69
2022/06/15 00:14:05;;;;;;;9.20;3.22;;;;;;;12.87;100.00;101847.34;5217183;28;20029;-69
2022/06/15 00:16:35;;;;;;;8.68;3.47;;;;;;;12.89;100.00;101853.41;5220576;28;20032;-69
2022/06/15 00:19:07;;;;;;;10.52;3.17;;;;;;;12.90;100.00;101855.09;5220560;28;20138;-69
2022/06/15 00:21:37;;;;;;;10.15;3.75;;;;;;;12.89;100.00;101850.72;5214310;28;20021;-69
2022/06/15 00:24:08;;;;;;;9.25;3.47;;;;;;;12.87;100.00;101844.66;5227359;28;20075;-69
2022/06/15 00:26:40;;;;;;;9.95;3.83;;;;;;;12.86;100.00;101848.34;5219721;28;20051;-69
2022/06/15 00:29:11;;;;;;;10.32;3.38;;;;;;;12.84;100.00;101847.66;5223012;28;20033;-69
2022/06/15 00:31:42;;;;;;;6.32;3.35;;;;;;;12.84;100.00;101853.88;5218154;28;20025;-69
2022/06/15 00:34:12;;;;;;;9.48;3.30;;;;;;;12.82;100.00;101847.81;5220335;28;20029;-69
2022/06/15 00:36:43;;;;;;;9.63;2.78;;;;;;;12.79;100.00;101842.72;5217602;28;20078;-69
2022/06/15 00:39:13;;;;;;;6.20;2.90;;;;;;;12.76;100.00;101848.44;5211280;28;20479;-69
2022/06/15 00:41:44;;;;;;;13.32;3.47;;;;;;;12.73;100.00;101846.06;5226358;28;20111;-69
2022/06/15 00:44:34;;;;;;;8.38;3.58;;;;;;;12.71;100.00;101848.06;5219130;28;20021;-69
2022/06/15 00:47:14;;;;;;;7.78;3.55;;;;;;;12.70;100.00;101840.97;5212415;28;20027;-69
2022/06/15 00:49:54;;;;;;;7.00;3.10;;;;;;;12.71;100.00;101842.69;5207102;28;20072;-70
2022/06/15 00:52:34;;;;;;;7.72;3.35;;;;;;;12.75;100.00;101829.72;5206786;28;20445;-70
2022/06/15 00:55:12;;;;;;;11.82;3.72;;;;;;;12.78;100.00;101842.88;5208755;28;20450;-69
2022/06/15 00:57:44;;;;;;;8.00;3.50;;;;;;;12.80;100.00;101836.38;5216788;28;20029;-70
2022/06/15 01:00:15;;;;;;;9.85;4.10;;;;;;;12.83;100.00;101841.41;5224630;28;20023;-69
2022/06/15 01:02:46;;;;;;;14.82;4.22;;;;;;;12.83;100.00;101836.03;5227418;28;20040;-70
2022/06/15 01:05:20;;;;;;;14.93;4.07;;;;;;;12.79;100.00;101833.81;5226925;28;20471;-69
2022/06/15 01:08:11;;;;;;;9.63;4.10;;;;;;;12.73;100.00;101829.06;5226674;28;20497;-69
2022/06/15 01:11:11;;;;;;;9.85;4.03;;;;;;;12.70;100.00;101832.88;5227216;28;20456;-69
2022/06/15 01:14:00;;;;;;;12.27;4.03;;;;;;;12.64;100.00;101826.28;5215012;28;20445;-69
2022/06/15 01:17:07;;;;;;;11.45;4.15;;;;;;;12.63;100.00;101824.59;5225736;28;20114;-69
2022/06/15 01:20:05;;;;;;;11.60;5.40;;;;;;;12.58;100.00;101820.69;5210219;28;20562;-69
2022/06/15 01:23:32;;;;;;;9.82;4.22;;;;;;;12.50;100.00;101820.59;5222705;28;20033;-69
2022/06/15 01:26:20;;;;;;;14.18;4.35;;;;;;;12.46;100.00;101817.41;5213141;28;20029;-69
2022/06/15 01:29:33;;;;;;;8.00;3.92;;;;;;;12.41;100.00;101817.88;5211489;28;20036;-69
2022/06/15 01:32:07;;;;;;;;;;;;;;;12.38;100.00;101817.31;5219385;28;20029;-69
2022/06/15 01:35:00;;;;;;;14.32;3.88;;;;;;;12.36;100.00;101808.56;5213402;28;19909;-69
2022/06/15 01:38:19;;;;;;;12.45;4.45;;;;;;;12.33;100.00;101817.78;5221761;28;20025;-69
2022/06/15 01:41:00;;;;;;;19.83;4.25;;;;;;;12.25;100.00;101808.78;5213009;28;20025;-69
2022/06/15 01:43:39;;;;;;;9.93;4.80;;;;;;;12.21;100.00;101807.41;5211957;28;20033;-69
2022/06/15 01:46:11;;;;;;;16.52;5.47;;;;;;;12.14;100.00;101802.63;5207266;28;20546;-69
2022/06/15 01:48:42;;;;;;;10.70;4.70;;;;;;;12.09;100.00;101799.56;5226263;28;20049;-69
2022/06/15 01:51:21;;;;;;;;;;;;;;;12.07;100.00;101798.88;5215338;28;20390;-70
2022/06/15 01:53:58;;;;;;;7.75;4.82;;;;;;;12.03;100.00;101797.47;5218773;28;19909;-69
2022/06/15 01:56:37;;;;;;;14.48;5.97;;;;;;;12.01;100.00;101802.19;5204401;28;20030;-69
2022/06/15 01:59:17;;;;;;;12.77;4.38;;;;;;;11.99;100.00;101800.63;5214759;28;20060;-71
2022/06/15 02:01:56;;;;;;;10.38;4.95;;;;;;;11.98;100.00;101794.41;5207976;28;20021;-71
2022/06/15 02:04:33;;;;;;;8.93;4.43;;;;;;;11.98;100.00;101799.78;5218397;28;20028;-70
2022/06/15 02:07:19;;;;;;;13.73;5.25;;;;;;;11.98;100.00;101793.56;5205549;28;20033;-70
2022/06/15 02:10:00;;;;;;;10.45;4.57;;;;;;;12.00;100.00;101796.94;5205367;28;20074;-70
2022/06/15 02:12:40;;;;;;;17.50;6.75;;;;;;;12.00;100.00;101795.13;5205388;28;20510;-69
2022/06/15 02:15:15;;;;;;;10.00;4.32;;;;;;;12.00;100.00;101792.44;5205124;28;20029;-70
2022/06/15 02:17:48;;;;;;;14.30;4.97;;;;;;;11.97;100.00;101787.34;5208621;28;20032;-70
2022/06/15 02:20:41;;;;;;;13.10;5.63;;;;;;;11.96;100.00;101792.88;5215477;28;20029;-70
2022/06/15 02:23:14;;;;;;;13.90;5.22;;;;;;;11.91;100.00;101788.78;5212576;28;20082;-70
2022/06/15 02:25:49;;;;;;;14.23;4.63;;;;;;;11.90;100.00;101788.97;5225385;28;20032;-70
2022/06/15 02:28:22;;;;;;;;;;;;;;;11.88;100.00;101780.19;5226371;28;20028;-69
2022/06/15 02:30:53;;;;;;;11.10;5.38;;;;;;;11.85;100.00;101791.25;5221630;28;20286;-69
2022/06/15 02:33:25;;;;;;;16.15;5.55;;;;;;;11.82;100.00;101786.16;5204726;28;20036;-69
2022/06/15 02:35:57;;;;;;;15.82;5.82;;;;;;;11.78;100.00;101787.44;5223163;28;20425;-69
2022/06/15 02:38:30;;;;;;;11.10;5.70;;;;;;;11.76;100.00;101790.28;5225469;28;20913;-69
2022/06/15 02:41:01;;;;;;;11.55;5.35;;;;;;;11.72;100.00;101791.56;5213992;28;20075;-69
2022/06/15 02:43:32;;;;;;;13.32;5.65;;;;;;;11.68;100.00;101785.63;5225195;28;20059;-70
2022/06/15 02:46:05;;;;;;;17.23;6.03;;;;;;;11.62;100.00;101786.25;5224824;28;20036;-70
2022/06/15 02:48:37;;;;;;;8.88;5.35;;;;;;;11.60;100.00;101785.56;5209829;28;20546;-69
2022/06/15 02:51:24;;;;;;;12.10;5.25;;;;;;;11.57;100.00;101793.91;5204617;28;20033;-70
2022/06/15 02:53:58;;;;;;;14.02;5.95;;;;;;;11.56;100.00;101794.09;5204559;28;20033;-70
2022/06/15 02:56:31;;;;;;;11.05;5.00;;;;;;;11.52;100.00;101790.84;5217412;28;20463;-70
2022/06/15 02:59:02;;;;;;;10.98;5.25;;;;;;;11.48;100.00;101788.59;5204409;28;20071;-69
2022/06/15 03:01:35;;;;;;;10.75;4.93;;;;;;;11.44;100.00;101776.44;5206400;28;20017;-69
2022/06/15 03:04:05;;;;;;;12.30;5.18;;;;;;;11.40;100.00;101783.97;5225079;28;20028;-69
2022/06/15 03:06:36;;;;;;;12.35;5.05;;;;;;;11.35;100.00;101787.09;5206788;28;20479;-69
2022/06/15 03:09:06;;;;;;;9.23;5.40;;;;;;;11.34;100.00;101785.38;5204096;28;20491;-69
2022/06/15 03:11:40;;;;;;;11.10;5.43;;;;;;;11.32;100.00;101786.56;5216140;28;20075;-69
2022/06/15 03:14:10;;;;;;;15.35;6.20;;;;;;;11.28;100.00;101780.63;5216730;28;20410;-69
2022/06/15 03:16:43;;;;;;;10.60;5.70;;;;;;;11.26;100.00;101793.38;5218311;28;20017;-69
2022/06/15 03:19:13;;;;;;;15.63;5.93;;;;;;;11.23;100.00;101793.66;5217690;28;20059;-69
2022/06/15 03:21:44;;;;;;;19.48;6.55;;;;;;;11.20;100.00;101790.44;5216716;28;20025;-69
2022/06/15 03:24:14;;;;;;;14.55;5.97;;;;;;;11.17;100.00;101788.88;5219295;28;20025;-69
2022/06/15 03:26:45;;;;;;;12.35;6.47;;;;;;;11.12;100.00;101786.63;5215395;28;20565;-69
2022/06/15 03:29:15;;;;;;;14.23;5.97;;;;;;;11.06;100.00;101789.91;5217469;28;20123;-69
2022/06/15 03:31:46;;;;;;;19.30;7.20;;;;;;;11.00;100.00;101787.81;5203780;28;20079;-69
2022/06/15 03:34:16;;;;;;;11.90;5.95;;;;;;;10.94;100.00;101784.84;5207949;28;20071;-69
2022/06/15 03:36:47;;;;;;;15.60;5.93;;;;;;;10.87;100.00;101784.59;5212879;28;20036;-69
2022/06/15 03:39:18;;;;;;;11.32;6.50;;;;;;;10.80;100.00;101781.66;5203606;28;20035;-69
2022/06/15 03:41:48;;;;;;;13.02;6.15;;;;;;;10.75;100.00;101788.44;5216017;28;20028;-69
2022/06/15 03:44:19;;;;;;;12.82;6.55;;;;;;;10.67;100.00;101788.31;5210402;28;20032;-69
2022/06/15 03:46:49;;;;;;;17.58;6.28;;;;;;;10.58;100.00;101790.84;5224417;28;20021;-69
2022/06/15 03:49:21;;;;;;;17.60;6.85;;;;;;;10.53;100.00;101797.63;5224489;28;20498;-69
2022/06/15 03:51:51;;;;;;;16.23;7.72;;;;;;;10.49;100.00;101797.09;5224642;28;20021;-69
2022/06/15 03:54:22;;;;;;;14.48;5.97;;;;;;;10.47;100.00;101792.84;5224202;28;20023;-69
2022/06/15 03:56:53;;;;;;;15.02;6.65;;;;;;;10.44;100.00;101788.63;5220483;28;20033;-69
2022/06/15 03:59:24;;;;;;;14.07;6.40;;;;;;;10.43;100.00;101797.66;5203694;28;20021;-69
2022/06/15 04:01:54;;;;;;;14.20;6.38;;;;;;;10.43;100.00;101797.66;5217000;28;20027;-69
2022/06/15 04:04:25;;;;;;;11.70;6.03;;;;;;;10.44;100.00;101798.50;5215952;28;20051;-69
2022/06/15 04:06:56;;;;;;;15.68;6.53;;;;;;;10.44;100.00;101801.16;5204416;28;20022;-69
2022/06/15 04:09:28;;;;;;;16.05;7.03;;;;;;;10.43;100.00;101792.28;5217483;28;20017;-69
2022/06/15 04:11:58;;;;;;;12.80;6.63;;;;;;;10.44;100.00;101794.00;5216339;28;20025;-69
2022/06/15 04:14:29;;;;;;;28.90;6.88;;;;;;;10.43;100.00;101800.31;5203382;28;20076;-69
2022/06/15 04:17:01;;;;;;;16.58;7.20;;;;;;;10.43;100.00;101797.66;5202648;28;20029;-69
2022/06/15 04:19:32;;;;;;;16.65;7.10;;;;;;;10.42;100.00;101795.94;5206869;28;20220;-69
2022/06/15 04:22:03;;;;;;;16.40;7.75;;;;;;;10.45;100.00;101802.88;5227923;28;20029;-69
2022/06/15 04:24:34;;;;;;;19.35;7.43;;;;;;;10.46;100.00;101802.72;5227955;28;20051;-69
2022/06/15 04:27:05;;;;;;;14.13;7.38;;;;;;;10.47;100.00;101801.75;5228129;28;20025;-69
2022/06/15 04:29:35;;;;;;;16.65;7.32;;;;;;;10.53;100.00;101805.69;5222204;28;20029;-69
2022/06/15 04:32:06;;;;;;;19.45;7.85;;;;;;;10.59;100.00;101810.47;5219890;28;20013;-69
2022/06/15 04:34:37;;;;;;;20.08;7.25;;;;;;;10.65;100.00;101803.72;5207492;28;20509;-69
2022/06/15 04:37:07;;;;;;;17.55;7.50;;;;;;;10.69;100.00;101810.47;5221139;28;20029;-69
2022/06/15 04:39:38;;;;;;;15.90;7.65;;;;;;;10.78;100.00;101805.09;5219267;28;20025;-69
2022/06/15 04:42:09;;;;;;;14.18;7.70;;;;;;;10.85;100.00;101803.53;5219086;28;20022;-69
2022/06/15 04:44:40;;;;;;;15.57;7.10;;;;;;;10.96;100.00;101805.19;5206385;28;20039;-69
2022/06/15 04:47:10;;;;;;;14.98;8.07;;;;;;;11.05;100.00;101808.84;5212468;28;20025;-69
2022/06/15 04:49:41;;;;;;;10.52;6.78;;;;;;;11.14;100.00;101813.31;5207235;28;20026;-69
2022/06/15 04:52:11;;;;;;;13.80;7.60;;;;;;;11.22;100.00;101805.41;5220002;28;20471;-69
2022/06/15 04:54:42;;;;;;;19.13;7.70;;;;;;;11.32;100.00;101810.72;5206503;28;20037;-69
2022/06/15 04:57:12;;;;;;;13.20;7.68;;;;;;;11.39;100.00;101804.59;5212714;28;20555;-69
2022/06/15 04:59:42;;;;;;;16.42;8.48;;;;;;;11.49;100.00;101801.88;5226882;28;20028;-69
2022/06/15 05:02:13;;;;;;;20.70;8.85;;;;;;;11.59;100.00;101799.97;5206540;28;20235;-69
2022/06/15 05:04:44;;;;;;;20.55;8.75;;;;;;;11.71;100.00;101815.94;5219697;28;20052;-69
2022/06/15 05:07:14;;;;;;;15.60;8.43;;;;;;;11.82;100.00;101813.06;5206613;28;20025;-69
2022/06/15 05:09:47;;;;;;;17.38;8.40;;;;;;;11.96;100.00;101819.78;5221803;28;20079;-69
2022/06/15 05:12:18;;;;;;;17.60;8.70;;;;;;;12.09;100.00;101826.44;5226792;28;20433;-69
2022/06/15 05:14:49;;;;;;;15.38;8.52;;;;;;;12.25;100.00;101830.31;5208999;28;20021;-69
2022/06/15 05:17:22;;;;;;;18.65;9.68;;;;;;;12.40;100.00;101826.94;5217852;28;20471;-69
2022/06/15 05:19:53;;;;;;;23.88;10.10;;;;;;;12.58;100.00;101826.06;5226636;28;20063;-69
2022/06/15 05:22:23;;;;;;;26.48;9.57;;;;;;;12.73;100.00;101821.81;5226595;28;20025;-69
2022/06/15 05:24:54;;;;;;;20.38;9.27;;;;;;;12.88;100.00;101811.31;5226266;28;20025;-69
2022/06/15 05:27:24;;;;;;;23.27;8.40;;;;;;;13.08;100.00;101814.66;5225443;28;20021;-69
2022/06/15 05:29:55;;;;;;;18.90;8.55;;;;;;;13.24;100.00;101819.31;5214529;28;20505;-69
2022/06/15 05:32:26;;;;;;;17.17;8.63;;;;;;;13.37;100.00;101817.03;5223259;28;20025;-69
2022/06/15 05:34:57;;;;;;;15.70;8.90;;;;;;;13.50;100.00;101803.94;5215973;28;20025;-69
2022/06/15 05:37:30;;;;;;;23.23;10.85;;;;;;;13.64;100.00;101802.47;5222866;28;20041;-69
2022/06/15 05:40:01;;;;;;;19.05;8.50;;;;;;;13.76;100.00;101811.13;5205720;28;20028;-69
2022/06/15 05:42:32;;;;;;;18.67;8.60;;;;;;;13.88;100.00;101804.41;5223865;28;20100;-69
2022/06/15 05:45:03;;;;;;;18.55;8.90;;;;;;;14.02;100.00;101802.94;5212556;28;20026;-69
2022/06/15 05:47:34;;;;;;;19.52;9.35;;;;;;;14.16;100.00;101807.69;5218613;28;20025;-69
2022/06/15 05:50:06;;;;;;;14.35;8.07;;;;;;;14.31;100.00;101805.16;5212962;28;20643;-69
2022/06/15 05:52:37;;;;;;;18.60;8.13;;;;;;;14.45;100.00;101810.72;5226183;28;20115;-69
2022/06/15 05:55:08;;;;;;;13.40;8.30;;;;;;;14.63;100.00;101799.81;5223249;28;20101;-70
2022/06/15 05:57:38;;;;;;;19.42;8.60;;;;;;;14.84;100.00;101810.09;5205454;28;20364;-70
2022/06/15 06:00:12;;;;;;;25.33;8.88;;;;;;;15.29;100.00;101805.94;5205648;28;20023;-70
2022/06/15 06:02:42;;;;;;;17.10;8.30;;;;;;;16.06;100.00;101808.78;5205245;28;20448;-70
2022/06/15 06:05:13;;;;;;;21.98;8.13;;;;;;;17.03;100.00;101804.47;5224506;28;20104;-70
2022/06/15 06:07:44;;;;;;;19.50;7.35;;;;;;;17.98;100.00;101800.94;5212359;28;20033;-70
2022/06/15 06:10:15;;;;;;;18.45;7.00;;;;;;;18.73;100.00;101806.94;5212399;28;20112;-70
2022/06/15 06:12:45;;;;;;;13.90;6.72;;;;;;;19.38;100.00;101811.13;5212518;28;20071;-70
2022/06/15 06:15:16;;;;;;;14.25;6.45;;;;;;;19.85;100.00;101813.03;5225545;28;20456;-70
2022/06/15 06:17:46;;;;;;;17.48;6.63;;;;;;;20.37;100.00;101808.75;5210261;28;20029;-70
2022/06/15 06:20:17;;;;;;;20.13;7.32;;;;;;;20.75;100.00;101816.34;5204973;28;20033;-71
2022/06/15 06:22:47;;;;;;;14.55;6.13;;;;;;;21.17;100.00;101815.03;5218243;28;20028;-70
2022/06/15 06:25:18;;;;;;;16.48;6.78;;;;;;;21.59;100.00;101812.03;5215875;28;20112;-70
2022/06/15 06:27:48;;;;;;;11.18;6.43;;;;;;;21.90;100.00;101820.28;5212298;28;20025;-71
2022/06/15 06:30:21;;;;;;;14.85;6.93;;;;;;;22.19;100.00;101823.53;5225446;28;20116;-71
2022/06/15 06:32:51;;;;;;;12.70;6.10;;;;;;;22.21;100.00;101822.25;5211513;28;20020;-71
2022/06/15 06:35:22;;;;;;;15.02;5.95;;;;;;;22.38;100.00;101821.72;5225217;28;20111;-71
2022/06/15 06:37:53;;;;;;;15.18;6.32;;;;;;;22.68;100.00;101825.47;5217702;28;20029;-71
2022/06/15 06:40:25;;;;;;;13.25;6.30;;;;;;;22.88;99.05;101825.34;5218814;28;20433;-71
2022/06/15 06:42:55;;;;;;;12.25;6.20;;;;;;;22.68;96.20;101827.38;5215498;28;20100;-71
2022/06/15 06:45:27;;;;;;;16.88;6.18;;;;;;;22.73;95.41;101830.28;5204540;28;20550;-71
2022/06/15 06:48:00;;;;;;;17.60;5.93;;;;;;;22.93;94.63;101828.22;5220805;28;20021;-71
2022/06/15 06:50:30;;;;;;;12.00;5.78;;;;;;;23.09;94.45;101828.72;5211737;28;20032;-71
2022/06/15 06:53:01;;;;;;;15.75;6.75;;;;;;;23.30;92.93;101822.84;5213027;28;20395;-71
2022/06/15 06:55:31;;;;;;;16.10;6.03;;;;;;;23.38;91.18;101827.16;5223337;28;20028;-71
2022/06/15 06:58:03;;;;;;;13.05;6.40;;;;;;;23.49;93.63;101820.91;5224617;28;20035;-71
2022/06/15 07:00:36;;;;;;;17.38;6.95;;;;;;;23.67;90.49;101820.94;5211484;28;20064;-71
2022/06/15 07:03:06;;;;;;;15.95;6.18;;;;;;;23.99;92.69;101823.47;5223473;28;20036;-71
2022/06/15 07:05:37;;;;;;;13.68;7.25;;;;;;;24.42;90.24;101822.47;5204193;28;20372;-71
2022/06/15 07:08:12;;;;;;;11.15;5.90;;;;;;;24.87;89.51;101824.69;5219871;28;20025;-71
2022/06/15 07:10:43;;;;;;;19.15;7.13;;;;;;;25.38;89.73;101834.94;5214392;28;20025;-71
2022/06/15 07:13:13;;;;;;;15.05;5.95;;;;;;;25.58;84.69;101838.13;5217972;28;20033;-71
2022/06/15 07:15:44;;;;;;;16.38;6.30;;;;;;;25.85;83.28;101825.78;5215699;28;20378;-71
2022/06/15 07:18:14;;;;;;;17.27;6.05;;;;;;;26.13;81.49;101827.72;5224195;28;20078;-71
2022/06/15 07:20:45;;;;;;;10.70;5.95;;;;;;;26.46;77.94;101827.81;5211533;28;20479;-71
2022/06/15 07:23:16;;;;;;;20.20;6.72;;;;;;;26.65;79.17;101827.53;5203779;28;20026;-71
2022/06/15 07:25:46;;;;;;;12.70;6.20;;;;;;;26.93;70.09;101841.22;5203976;28;20486;-71
2022/06/15 07:28:17;;;;;;;15.77;6.10;;;;;;;26.51;72.26;101832.56;5204010;28;20450;-71
2022/06/15 07:30:47;;;;;;;11.60;5.25;;;;;;;26.85;71.83;101838.88;5204958;28;20044;-71
2022/06/15 07:33:19;;;;;;;15.80;5.00;;;;;;;27.16;67.68;101837.50;5215734;28;20375;-71
2022/06/15 07:35:50;;;;;;;14.70;5.57;;;;;;;26.73;71.66;101840.91;5206192;28;20030;-71
2022/06/15 07:38:20;;;;;;;13.00;6.32;;;;;;;26.66;72.33;101846.59;5224521;28;20025;-71
2022/06/15 07:40:51;;;;;;;14.32;5.70;;;;;;;26.78;69.19;101841.81;5213159;28;20040;-71
2022/06/15 07:43:21;;;;;;;13.80;6.53;;;;;;;26.48;68.42;101841.31;5212003;28;20048;-71
2022/06/15 07:45:52;;;;;;;11.52;5.90;;;;;;;26.35;70.34;101842.41;5209291;28;20021;-71
2022/06/15 07:51:46;;;;;;;14.95;6.15;;;;;;;26.79;68.78;101835.22;5203665;28;20503;-71
2022/06/15 07:54:17;;;;;;;10.52;5.88;;;;;;;27.45;66.19;101835.38;5212004;28;20117;-71
2022/06/15 07:56:50;;;;;;;13.65;6.22;;;;;;;27.03;69.04;101832.28;5212305;28;20394;-71
2022/06/15 07:59:22;;;;;;;20.48;6.38;;;;;;;27.14;68.79;101830.56;5207735;28;20034;-71
2022/06/15 08:01:53;;;;;;;11.55;5.95;;;;;;;27.34;68.37;101833.59;5212008;28;20398;-71
2022/06/15 08:04:24;;;;;;;15.80;6.32;;;;;;;27.78;67.06;101831.72;5216131;28;20026;-71
2022/06/15 08:06:54;;;;;;;12.40;6.22;;;;;;;27.92;63.87;101826.63;5207208;28;20425;-71
2022/06/15 08:09:25;;;;;;;12.73;6.03;;;;;;;28.03;65.40;101830.34;5221016;28;20078;-71
2022/06/15 08:14:49;;;;;;;16.25;5.80;;;;;;;27.83;64.36;101814.41;5211084;28;20059;-71
2022/06/15 08:17:23;;;;;;;15.95;5.72;;;;;;;27.75;66.09;101820.34;5207422;28;20450;-71
2022/06/15 08:19:56;;;;;;;;;;;;;;;27.80;63.03;101815.72;5226939;28;20098;-71
2022/06/15 08:22:27;;;;;;;16.60;6.35;;;;;;;27.72;63.15;101816.22;5214635;28;20367;-72
2022/06/15 08:24:59;;;;;;;15.35;5.35;;;;;;;27.57;62.50;101824.25;5214188;28;20079;-71
2022/06/15 08:27:30;;;;;;;11.95;5.30;;;;;;;27.99;63.88;101824.50;5212465;28;20104;-71
2022/06/15 08:30:00;;;;;;;17.13;5.13;;;;;;;27.99;64.63;101818.16;5214314;28;20108;-71
2022/06/15 08:32:31;;;;;;;20.08;5.55;;;;;;;28.47;65.71;101821.97;5211782;28;20061;-71
2022/06/15 08:35:03;;;;;;;18.02;5.68;;;;;;;28.41;58.20;101812.78;5217047;28;20032;-72
2022/06/15 08:37:33;;;;;;;12.85;4.47;;;;;;;28.67;60.38;101824.03;5228139;28;20028;-71
2022/06/15 08:40:05;;;;;;;14.10;4.68;;;;;;;28.68;60.02;101822.97;5217196;28;20495;-71
2022/06/15 08:43:10;;;;;;;15.30;4.35;;;;;;;28.56;56.32;101825.91;5219087;28;20483;-71
2022/06/15 08:45:46;;;;;;;11.95;5.18;;;;;;;28.54;59.29;101815.13;5225065;28;20036;-71
2022/06/15 08:48:36;;;;;;;12.05;4.70;;;;;;;27.81;53.47;101820.19;5227085;28;20397;-71
2022/06/15 08:51:07;;;;;;;10.57;4.07;;;;;;;27.80;55.64;101815.72;5206995;28;20442;-72
2022/06/15 08:54:17;;;;;;;17.30;5.05;;;;;;;27.97;56.52;101812.91;5223537;28;20044;-72
2022/06/15 08:56:53;;;;;;;13.18;4.53;;;;;;;28.00;58.25;101812.38;5226743;28;20055;-72
2022/06/15 08:59:33;;;;;;;37.53;5.00;;;;;;;28.03;56.80;101813.78;5216404;28;20025;-71
2022/06/15 09:02:27;;;;;;;10.65;4.97;;;;;;;27.80;54.76;101812.97;5219768;28;20028;-71
2022/06/15 09:05:16;;;;;;;16.55;4.10;;;;;;;27.48;55.03;101826.63;5209585;28;20103;-71
2022/06/15 09:08:15;;;;;;;9.60;4.47;;;;;;;27.44;55.05;101814.44;5213809;28;20025;-71
2022/06/15 09:11:11;;;;;;;11.75;4.53;;;;;;;27.46;53.94;101808.66;5217445;28;20051;-71
2022/06/15 09:14:17;;;;;;;10.98;4.05;;;;;;;27.86;57.18;101802.84;5206480;28;20027;-71
2022/06/15 09:17:05;;;;;;;16.17;5.18;;;;;;;27.92;58.43;101815.63;5206811;28;20041;-71
2022/06/15 09:19:43;;;;;;;11.82;4.43;;;;;;;28.01;54.02;101811.28;5209689;28;20031;-71
2022/06/15 09:22:17;;;;;;;11.88;4.50;;;;;;;27.82;52.44;101813.56;5214431;28;20026;-71
2022/06/15 09:25:25;;;;;;;14.45;4.75;;;;;;;27.62;51.77;101818.81;5206394;28;20478;-71
2022/06/15 09:28:23;;;;;;;13.23;4.82;;;;;;;27.56;50.20;101817.91;5219029;28;20521;-71
2022/06/15 09:30:58;;;;;;;15.35;4.93;;;;;;;27.34;50.73;101823.41;5222612;28;20028;-71
2022/06/15 09:33:37;;;;;;;15.02;4.10;;;;;;;27.81;54.55;101811.06;5226840;28;20410;-71
2022/06/15 09:36:14;;;;;;;26.23;5.72;;;;;;;28.20;51.80;101819.19;5205417;28;20025;-71
2022/06/15 09:38:45;;;;;;;18.83;4.60;;;;;;;28.43;55.61;101812.56;5220309;28;20760;-71
2022/06/15 09:41:20;;;;;;;10.55;4.60;;;;;;;28.64;54.00;101808.84;5215378;28;20021;-71
2022/06/15 09:44:13;;;;;;;11.05;4.63;;;;;;;28.94;54.35;101815.72;5223234;28;20021;-71
2022/06/15 09:46:44;;;;;;;12.68;5.13;;;;;;;28.90;54.65;101826.44;5219009;28;20036;-71
2022/06/15 09:49:41;;;;;;;15.30;5.25;;;;;;;29.30;52.78;101823.13;5218628;28;20026;-71
2022/06/15 09:52:27;;;;;;;17.33;5.07;;;;;;;29.38;54.13;101822.63;5218713;28;20479;-71
2022/06/15 09:55:16;;;;;;;11.52;5.00;;;;;;;28.74;50.97;101819.16;5219587;28;20041;-72
2022/06/15 09:57:47;;;;;;;14.93;5.30;;;;;;;28.78;51.54;101814.78;5226317;28;20055;-71
2022/06/15 10:00:18;;;;;;;14.98;4.40;;;;;;;28.82;52.46;101810.38;5207382;28;20345;-71
2022/06/15 10:02:55;;;;;;;14.60;4.25;;;;;;;28.76;52.83;101819.72;5217995;28;20029;-71
2022/06/15 10:05:31;;;;;;;9.65;4.15;;;;;;;29.00;53.05;101812.72;5212611;28;20044;-71
2022/06/15 10:08:06;;;;;;;12.90;5.53;;;;;;;29.07;50.74;101816.13;5223748;28;20063;-71
2022/06/15 10:10:56;;;;;;;10.82;4.45;;;;;;;29.03;50.48;101811.38;5215536;28;20067;-72
2022/06/15 10:13:32;;;;;;;15.88;4.90;;;;;;;29.13;49.24;101806.75;5219124;28;20053;-71
2022/06/15 10:16:20;;;;;;;11.60;4.53;;;;;;;28.77;47.89;101802.06;5205524;28;20036;-71
2022/06/15 10:18:54;;;;;;;11.85;4.38;;;;;;;28.69;51.13;101797.03;5214003;28;20029;-71
2022/06/15 10:21:29;;;;;;;11.10;4.35;;;;;;;28.38;51.64;101792.09;5223729;28;20017;-71
2022/06/15 10:24:06;;;;;;;12.30;4.78;;;;;;;28.36;51.07;101787.91;5225407;28;20082;-71
2022/06/15 10:26:41;;;;;;;13.88;4.50;;;;;;;28.19;52.69;101792.72;5225654;28;20021;-71
2022/06/15 10:29:28;;;;;;;9.20;4.70;;;;;;;28.36;49.44;101787.91;5222380;28;20021;-71
2022/06/15 10:32:09;;;;;;;18.02;4.63;;;;;;;28.22;52.80;101782.00;5217838;28;20083;-71
2022/06/15 10:35:13;;;;;;;9.30;4.43;;;;;;;28.50;55.12;101780.03;5216832;28;20021;-71
2022/06/15 10:37:48;;;;;;;11.68;4.13;;;;;;;28.89;53.97;101789.72;5204651;28;20029;-71
2022/06/15 10:40:33;;;;;;;14.23;5.28;;;;;;;28.78;49.44;101784.41;5209288;28;20109;-71
2022/06/15 10:43:18;;;;;;;9.40;4.05;;;;;;;28.70;53.39;101788.47;5214638;28;20486;-71
2022/06/15 10:46:04;;;;;;;12.15;4.60;;;;;;;28.69;52.55;101784.06;5211687;28;20021;-71
2022/06/15 10:48:57;;;;;;;17.50;5.25;;;;;;;28.66;52.26;101776.28;5225003;28;20668;-71
2022/06/15 10:51:32;;;;;;;10.65;4.57;;;;;;;28.98;53.81;101772.69;5224745;28;20111;-71
2022/06/15 10:54:22;;;;;;;13.07;4.63;;;;;;;29.03;49.79;101767.19;5212094;28;20060;-71
2022/06/15 11:02:46;;;;;;;13.50;5.00;;;;;;;28.08;49.79;101767.78;5224881;28;20052;-71
2022/06/15 11:05:21;;;;;;;9.30;4.07;;;;;;;28.43;51.01;101768.41;5223454;28;20033;-71
2022/06/15 11:07:55;;;;;;;11.88;3.75;;;;;;;28.64;53.94;101762.75;5224011;28;20035;-71
2022/06/15 11:10:26;;;;;;;8.77;3.92;;;;;;;28.65;52.46;101760.81;5204275;28;20017;-71
2022/06/15 11:13:00;;;;;;;9.70;4.05;;;;;;;28.73;56.54;101762.28;5206152;28;20032;-72
2022/06/15 11:19:11;;;;;;;10.65;4.70;;;;;;;28.71;51.20;101768.03;5212192;28;20037;-71
2022/06/15 11:21:48;;;;;;;12.85;4.57;;;;;;;28.32;51.53;101767.47;5210955;28;20104;-71
2022/06/15 11:24:42;;;;;;;12.55;4.38;;;;;;;28.00;54.83;101756.38;5223530;28;20136;-71
2022/06/15 11:27:33;;;;;;;12.82;4.85;;;;;;;28.03;52.27;101744.84;5210166;28;20427;-71
2022/06/15 11:30:27;;;;;;;14.63;3.95;;;;;;;28.26;56.41;101749.16;5212150;28;20032;-71
2022/06/15 11:33:22;;;;;;;7.80;3.55;;;;;;;28.79;51.22;101752.91;5216358;28;20391;-71
2022/06/15 11:36:13;;;;;;;10.83;3.40;;;;;;;28.94;53.56;101755.81;5220251;28;20420;-71
2022/06/15 11:38:52;;;;;;;13.13;3.95;;;;;;;28.98;51.58;101756.94;5223445;28;20033;-71
2022/06/15 11:41:32;;;;;;;11.68;4.03;;;;;;;28.82;48.95;101752.41;5221826;28;20302;-71
2022/06/15 11:44:15;;;;;;;13.35;4.00;;;;;;;28.68;52.14;101749.25;5204779;28;20026;-71
2022/06/15 11:47:05;;;;;;;16.77;4.22;;;;;;;28.18;53.40;101744.16;5222158;28;20024;-71
2022/06/15 11:50:01;;;;;;;13.23;4.13;;;;;;;27.59;52.86;101742.97;5212997;28;20551;-70
2022/06/15 11:53:10;;;;;;;18.20;4.50;;;;;;;27.72;53.95;101738.19;5222865;28;20052;-71
2022/06/15 11:56:00;;;;;;;8.55;3.83;;;;;;;27.97;52.54;101740.38;5219709;28;20025;-71
2022/06/15 11:58:45;;;;;;;10.07;4.05;;;;;;;28.10;51.20;101743.50;5222788;28;20024;-71
2022/06/15 12:01:23;;;;;;;6.93;3.10;;;;;;;28.04;52.50;101743.75;5209146;28;20060;-71
2022/06/15 12:04:13;;;;;;;10.95;3.70;;;;;;;28.65;55.81;101749.78;5209311;28;20303;-71
2022/06/15 12:07:04;;;;;;;10.07;3.40;;;;;;;28.80;49.88;101746.28;5223031;28;20025;-71
2022/06/15 12:09:49;;;;;;;10.05;4.15;;;;;;;28.59;50.83;101742.56;5210599;28;20144;-71
2022/06/15 12:12:39;;;;;;;10.10;4.22;;;;;;;28.79;50.46;101737.19;5212639;28;20499;-71